createdAt,value
2023-05-10T00:00:18.564Z,69.40
2023-05-10T00:02:45.383Z,69.30
2023-05-10T00:05:12.496Z,69.40
2023-05-10T00:07:38.961Z,69.40
2023-05-10T00:10:05.422Z,69.40
2023-05-10T00:12:31.924Z,69.60
2023-05-10T00:14:58.501Z,69.50
2023-05-10T00:17:24.987Z,69.40
2023-05-10T00:19:51.463Z,69.40
2023-05-10T00:22:17.925Z,69.40
2023-05-10T00:24:44.380Z,69.60
2023-05-10T00:27:10.861Z,69.50
2023-05-10T00:29:37.324Z,69.50
2023-05-10T00:32:03.848Z,69.40
2023-05-10T00:34:35.526Z,69.60
2023-05-10T00:37:02.008Z,69.50
2023-05-10T00:39:28.476Z,69.40
2023-05-10T00:41:54.945Z,69.60
2023-05-10T00:44:21.417Z,69.40
2023-05-10T00:46:47.918Z,69.20
2023-05-10T00:49:14.405Z,69.20
2023-05-10T00:51:40.905Z,69.40
2023-05-10T00:54:07.386Z,69.30
2023-05-10T00:56:33.860Z,69.40
2023-05-10T00:59:00.340Z,69.30
2023-05-10T01:01:26.849Z,69.40
2023-05-10T01:03:53.348Z,69.40
2023-05-10T01:06:19.810Z,69.50
2023-05-10T01:08:46.304Z,69.30
2023-05-10T01:11:12.783Z,69.60
2023-05-10T01:13:39.278Z,69.30
2023-05-10T01:16:05.787Z,69.60
2023-05-10T01:18:32.327Z,69.50
2023-05-10T01:20:58.788Z,69.40
2023-05-10T01:23:25.260Z,69.60
2023-05-10T01:25:51.811Z,69.50
2023-05-10T01:28:18.309Z,69.60
2023-05-10T01:30:44.783Z,69.60
2023-05-10T01:33:11.276Z,69.40
2023-05-10T01:35:37.767Z,69.80
2023-05-10T01:38:04.253Z,69.60
2023-05-10T01:40:30.736Z,69.40
2023-05-10T01:42:57.253Z,69.60
2023-05-10T01:45:23.741Z,69.60
2023-05-10T01:47:50.280Z,69.40
2023-05-10T01:50:17.047Z,69.40
2023-05-10T01:52:43.778Z,69.40
2023-05-10T01:55:10.274Z,69.30
2023-05-10T01:57:36.763Z,69.20
2023-05-10T02:00:03.304Z,69.70
2023-05-10T02:02:29.791Z,69.40
2023-05-10T02:04:56.317Z,69.70
2023-05-10T02:07:22.775Z,69.60
2023-05-10T02:09:49.268Z,69.40
2023-05-10T02:12:15.749Z,69.60
2023-05-10T02:14:42.244Z,69.50
2023-05-10T02:17:08.741Z,69.80
2023-05-10T02:19:35.257Z,69.70
2023-05-10T02:22:01.760Z,69.50
2023-05-10T02:24:28.266Z,69.50
2023-05-10T02:26:54.752Z,69.70
2023-05-10T02:29:21.251Z,69.60
2023-05-10T02:31:47.802Z,69.50
2023-05-10T02:34:14.308Z,69.60
2023-05-10T02:36:40.786Z,69.40
2023-05-10T02:39:07.291Z,69.10
2023-05-10T02:41:33.817Z,69.30
2023-05-10T02:44:00.309Z,69.50
2023-05-10T02:46:26.871Z,69.70
2023-05-10T02:48:54.516Z,69.60
2023-05-10T02:51:21.010Z,69.50
2023-05-10T02:53:47.489Z,69.30
2023-05-10T02:56:17.605Z,69.60
2023-05-10T02:58:44.087Z,69.20
2023-05-10T03:01:10.628Z,69.60
2023-05-10T03:03:37.124Z,69.50
2023-05-10T03:06:03.613Z,69.50
2023-05-10T03:08:30.076Z,69.50
2023-05-10T03:10:56.572Z,69.60
2023-05-10T03:13:23.139Z,69.60
2023-05-10T03:15:49.704Z,69.50
2023-05-10T03:18:16.213Z,69.40
2023-05-10T03:20:42.693Z,69.50
2023-05-10T03:23:09.185Z,69.50
2023-05-10T03:25:41.630Z,69.50
2023-05-10T03:28:08.100Z,69.60
2023-05-10T03:30:34.587Z,69.50
2023-05-10T03:33:01.076Z,69.50
2023-05-10T03:35:27.648Z,69.40
2023-05-10T03:37:54.128Z,69.40
2023-05-10T03:40:20.608Z,69.40
2023-05-10T03:42:47.107Z,69.30
2023-05-10T03:45:13.617Z,69.30
2023-05-10T03:47:40.166Z,69.20
2023-05-10T03:50:06.636Z,69.40
2023-05-10T03:52:33.113Z,69.40
2023-05-10T03:54:59.577Z,69.40
2023-05-10T03:57:26.058Z,69.40
2023-05-10T03:59:52.521Z,69.40
2023-05-10T04:02:19.049Z,69.40
2023-05-10T04:04:45.565Z,69.40
2023-05-10T04:07:17.660Z,69.20
2023-05-10T04:09:44.132Z,69.20
2023-05-10T04:12:11.052Z,69.20
2023-05-10T04:14:37.676Z,69.40
2023-05-10T04:17:04.223Z,69.20
2023-05-10T04:19:30.718Z,69.20
2023-05-10T04:21:57.219Z,69.20
2023-05-10T04:24:23.699Z,69.10
2023-05-10T04:26:50.190Z,69.20
2023-05-10T04:29:16.678Z,69.20
2023-05-10T04:31:43.158Z,69.30
2023-05-10T04:34:09.626Z,69.30
2023-05-10T04:36:36.080Z,69.20
2023-05-10T04:39:02.575Z,69.30
2023-05-10T04:41:29.054Z,69.30
2023-05-10T04:43:55.564Z,69.30
2023-05-10T04:46:22.077Z,69.20
2023-05-10T04:48:48.588Z,69.20
2023-05-10T04:51:15.088Z,69.20
2023-05-10T04:53:43.082Z,69.40
2023-05-10T04:56:12.869Z,69.10
2023-05-10T04:58:39.334Z,69.40
2023-05-10T05:01:05.798Z,69.10
2023-05-10T05:03:32.368Z,69.20
2023-05-10T05:05:58.895Z,69.20
2023-05-10T05:08:25.445Z,69.20
2023-05-10T05:10:51.931Z,69.20
2023-05-10T05:13:18.467Z,69.30
2023-05-10T05:15:44.966Z,69.20
2023-05-10T05:18:11.522Z,69.20
2023-05-10T05:20:37.984Z,69.20
2023-05-10T05:23:04.469Z,69.00
2023-05-10T05:25:30.952Z,69.20
2023-05-10T05:27:57.441Z,69.20
2023-05-10T05:30:23.916Z,69.20
2023-05-10T05:32:50.464Z,69.10
2023-05-10T05:35:17.145Z,69.10
2023-05-10T05:37:43.817Z,69.20
2023-05-10T05:40:10.310Z,69.20
2023-05-10T05:42:36.827Z,69.10
2023-05-10T05:45:03.338Z,69.20
2023-05-10T05:47:29.874Z,69.10
2023-05-10T05:49:56.353Z,69.00
2023-05-10T05:52:22.840Z,69.20
2023-05-10T05:54:49.333Z,69.00
2023-05-10T05:57:15.812Z,69.10
2023-05-10T05:59:42.288Z,69.20
2023-05-10T06:02:08.789Z,69.10
2023-05-10T06:04:35.358Z,69.10
2023-05-10T06:07:01.842Z,69.00
2023-05-10T06:09:28.315Z,69.10
2023-05-10T06:11:54.777Z,69.00
2023-05-10T06:14:21.237Z,69.00
2023-05-10T06:16:47.754Z,69.10
2023-05-10T06:19:14.242Z,69.10
2023-05-10T06:21:40.696Z,69.10
2023-05-10T06:24:07.259Z,69.10
2023-05-10T06:26:33.733Z,69.00
2023-05-10T06:29:00.221Z,69.00
2023-05-10T06:31:26.688Z,68.90
2023-05-10T06:33:55.342Z,69.10
2023-05-10T06:36:23.086Z,69.10
2023-05-10T06:38:49.560Z,69.10
2023-05-10T06:41:16.066Z,69.20
2023-05-10T06:43:42.548Z,69.20
2023-05-10T06:46:09.093Z,69.10
2023-05-10T06:48:35.608Z,69.30
2023-05-10T06:51:02.119Z,68.80
2023-05-10T06:53:28.655Z,69.20
2023-05-10T06:55:55.166Z,69.10
2023-05-10T06:58:21.657Z,69.30
2023-05-10T07:00:48.178Z,69.20
2023-05-10T07:03:14.692Z,69.20
2023-05-10T07:05:41.266Z,69.10
2023-05-10T07:08:07.769Z,69.20
2023-05-10T07:10:34.260Z,69.50
2023-05-10T07:13:00.857Z,69.10
2023-05-10T07:15:27.415Z,69.20
2023-05-10T07:17:54.023Z,69.40
2023-05-10T07:20:20.557Z,69.30
2023-05-10T07:22:47.040Z,69.20
2023-05-10T07:25:13.510Z,69.20
2023-05-10T07:27:40.002Z,69.20
2023-05-10T07:30:06.497Z,69.30
2023-05-10T07:32:33.191Z,69.40
2023-05-10T07:34:59.745Z,69.40
2023-05-10T07:37:26.209Z,69.60
2023-05-10T07:39:52.669Z,69.60
2023-05-10T07:42:19.133Z,69.50
2023-05-10T07:44:45.621Z,69.30
2023-05-10T07:47:12.168Z,69.20
2023-05-10T07:49:38.680Z,69.20
2023-05-10T07:52:05.177Z,69.20
2023-05-10T07:54:31.663Z,69.20
2023-05-10T07:56:58.184Z,69.50
2023-05-10T07:59:24.659Z,69.80
2023-05-10T08:01:51.142Z,69.60
2023-05-10T08:04:17.702Z,69.50
2023-05-10T08:06:44.194Z,69.40
2023-05-10T08:09:10.685Z,69.30
2023-05-10T08:11:37.196Z,69.40
2023-05-10T08:14:03.686Z,69.40
2023-05-10T08:16:30.271Z,69.40
2023-05-10T08:18:56.861Z,69.60
2023-05-10T08:21:23.433Z,69.50
2023-05-10T08:23:49.868Z,69.40
2023-05-10T08:26:16.347Z,69.50
2023-05-10T08:28:42.815Z,69.30
2023-05-10T08:31:09.334Z,69.40
2023-05-10T08:33:35.822Z,69.40
2023-05-10T08:36:02.307Z,69.50
2023-05-10T08:38:28.821Z,69.60
2023-05-10T08:40:55.344Z,69.50
2023-05-10T08:43:21.901Z,69.50
2023-05-10T08:45:48.424Z,69.50
2023-05-10T08:48:14.936Z,69.50
2023-05-10T08:50:41.405Z,69.40
2023-05-10T08:53:07.897Z,69.50
2023-05-10T08:55:34.591Z,69.40
2023-05-10T08:58:01.056Z,69.40
2023-05-10T09:00:27.513Z,69.50
2023-05-10T09:02:54.050Z,69.50
2023-05-10T09:05:20.692Z,69.50
2023-05-10T09:07:47.244Z,69.40
2023-05-10T09:10:13.721Z,69.40
2023-05-10T09:12:40.213Z,69.50
2023-05-10T09:15:06.684Z,69.50
2023-05-10T09:17:33.242Z,69.50
2023-05-10T09:19:59.738Z,69.50
2023-05-10T09:22:26.204Z,69.40
2023-05-10T09:24:52.682Z,69.50
2023-05-10T09:27:19.187Z,69.40
2023-05-10T09:29:45.668Z,69.40
2023-05-10T09:32:13.817Z,69.50
2023-05-10T09:34:40.536Z,69.40
2023-05-10T09:37:07.044Z,69.20
2023-05-10T09:39:33.553Z,69.20
2023-05-10T09:42:00.044Z,69.40
2023-05-10T09:44:26.547Z,69.20
2023-05-10T09:46:53.066Z,69.20
2023-05-10T09:49:19.554Z,69.30
2023-05-10T09:51:46.037Z,69.20
2023-05-10T09:54:12.494Z,69.10
2023-05-10T09:56:38.953Z,69.40
2023-05-10T09:59:05.428Z,69.30
2023-05-10T10:01:31.921Z,69.50
2023-05-10T10:03:58.434Z,69.30
2023-05-10T10:06:30.203Z,69.40
2023-05-10T10:08:57.134Z,69.50
2023-05-10T10:11:23.592Z,69.60
2023-05-10T10:13:50.067Z,69.60
2023-05-10T10:16:16.581Z,69.50
2023-05-10T10:18:43.139Z,69.50
2023-05-10T10:21:09.637Z,69.50
2023-05-10T10:23:36.124Z,69.40
2023-05-10T10:26:02.613Z,69.60
2023-05-10T10:28:29.089Z,70.30
2023-05-10T10:30:55.574Z,69.30
2023-05-10T10:35:53.538Z,68.90
2023-05-10T10:38:20.023Z,68.90
2023-05-10T10:40:46.520Z,69.30
2023-05-10T10:43:12.982Z,69.10
2023-05-10T10:45:40.694Z,69.00
2023-05-10T10:48:08.311Z,68.70
2023-05-10T10:50:34.793Z,68.60
2023-05-10T10:53:01.300Z,68.50
2023-05-10T10:55:27.857Z,68.50
2023-05-10T10:57:54.309Z,68.30
2023-05-10T11:00:20.814Z,68.90
2023-05-10T11:02:47.436Z,68.60
2023-05-10T11:05:14.094Z,68.30
2023-05-10T11:07:40.702Z,68.10
2023-05-10T11:10:07.192Z,68.10
2023-05-10T11:12:33.667Z,68.10
2023-05-10T11:15:00.158Z,68.10
2023-05-10T11:17:26.661Z,68.20
2023-05-10T11:19:53.219Z,68.50
2023-05-10T11:22:19.703Z,68.20
2023-05-10T11:24:46.367Z,68.00
2023-05-10T11:27:13.467Z,68.30
2023-05-10T11:29:39.994Z,68.10
2023-05-10T11:32:06.478Z,68.10
2023-05-10T11:34:32.959Z,68.50
2023-05-10T11:36:59.485Z,68.30
2023-05-10T11:39:26.011Z,68.00
2023-05-10T11:41:52.494Z,67.90
2023-05-10T11:44:18.989Z,68.80
2023-05-10T11:46:45.587Z,68.10
2023-05-10T11:49:12.099Z,68.40
2023-05-10T11:51:38.583Z,68.50
2023-05-10T11:54:05.025Z,68.00
2023-05-10T11:56:31.520Z,68.30
2023-05-10T11:58:58.089Z,67.90
2023-05-10T12:01:24.626Z,68.10
2023-05-10T12:03:51.275Z,68.40
2023-05-10T12:06:17.936Z,68.30
2023-05-10T12:08:44.388Z,68.00
2023-05-10T12:11:10.876Z,68.10
2023-05-10T12:13:37.329Z,68.80
2023-05-10T12:16:03.820Z,67.90
2023-05-10T12:18:30.337Z,68.30
2023-05-10T12:20:56.839Z,68.60
2023-05-10T12:23:23.322Z,68.90
2023-05-10T12:25:49.795Z,68.40
2023-05-10T12:28:16.259Z,68.20
2023-05-10T12:30:42.732Z,68.70
2023-05-10T12:33:09.363Z,68.40
2023-05-10T12:35:35.932Z,68.10
2023-05-10T12:38:02.437Z,67.90
2023-05-10T12:40:28.915Z,67.90
2023-05-10T12:42:55.448Z,67.70
2023-05-10T12:45:21.929Z,67.60
2023-05-10T12:47:48.446Z,68.60
2023-05-10T12:50:15.095Z,68.50
2023-05-10T12:52:41.727Z,67.80
2023-05-10T12:55:08.224Z,67.70
2023-05-10T12:57:34.711Z,67.50
2023-05-10T13:00:01.193Z,67.50
2023-05-10T13:02:27.739Z,67.80
2023-05-10T13:04:54.288Z,67.50
2023-05-10T13:07:20.827Z,67.40
2023-05-10T13:09:47.321Z,67.40
2023-05-10T13:12:18.127Z,67.60
2023-05-10T13:14:44.600Z,67.50
2023-05-10T13:17:11.186Z,67.40
2023-05-10T13:19:37.765Z,67.50
2023-05-10T13:22:04.253Z,67.50
2023-05-10T13:24:30.757Z,67.90
2023-05-10T13:26:57.210Z,67.60
2023-05-10T13:29:23.724Z,68.10
2023-05-10T13:31:50.293Z,67.70
2023-05-10T13:34:16.883Z,67.90
2023-05-10T13:36:43.367Z,67.60
2023-05-10T13:39:09.875Z,67.50
2023-05-10T13:41:36.370Z,67.50
2023-05-10T13:44:02.883Z,67.40
2023-05-10T13:46:29.428Z,67.90
2023-05-10T13:48:55.924Z,67.90
2023-05-10T13:51:22.380Z,67.90
2023-05-10T13:53:54.170Z,67.60
2023-05-10T13:56:20.653Z,67.30
2023-05-10T13:58:47.131Z,67.40
2023-05-10T14:01:13.660Z,68.00
2023-05-10T14:03:40.497Z,67.40
2023-05-10T14:06:07.087Z,67.90
2023-05-10T14:08:33.571Z,67.70
2023-05-10T14:11:00.052Z,67.40
2023-05-10T14:13:26.532Z,67.80
2023-05-10T14:15:53.023Z,67.40
2023-05-10T14:18:19.526Z,67.60
2023-05-10T14:20:46.040Z,67.40
2023-05-10T14:23:12.570Z,67.30
2023-05-10T14:25:39.096Z,67.70
2023-05-10T14:28:05.603Z,67.40
2023-05-10T14:30:32.169Z,67.30
2023-05-10T14:32:58.713Z,67.30
2023-05-10T14:35:25.404Z,67.50
2023-05-10T14:37:52.040Z,67.30
2023-05-10T14:40:18.545Z,67.80
2023-05-10T14:42:45.029Z,67.60
2023-05-10T14:45:11.530Z,67.70
2023-05-10T14:47:38.012Z,68.00
2023-05-10T14:50:04.548Z,67.70
2023-05-10T14:52:32.857Z,67.40
2023-05-10T14:55:00.610Z,67.60
2023-05-10T14:57:27.091Z,67.60
2023-05-10T14:59:53.567Z,67.40
2023-05-10T15:02:20.637Z,67.60
2023-05-10T15:04:47.539Z,67.50
2023-05-10T15:07:14.365Z,67.30
2023-05-10T15:09:40.860Z,67.40
2023-05-10T15:12:07.366Z,67.30
2023-05-10T15:14:33.827Z,67.40
2023-05-10T15:17:00.336Z,67.30
2023-05-10T15:19:26.830Z,67.40
2023-05-10T15:21:53.331Z,67.40
2023-05-10T15:24:19.796Z,67.30
2023-05-10T15:26:46.287Z,67.30
2023-05-10T15:29:12.764Z,67.30
2023-05-10T15:31:39.302Z,67.30
2023-05-10T15:34:05.797Z,67.20
2023-05-10T15:36:32.309Z,67.20
2023-05-10T15:38:58.766Z,67.30
2023-05-10T15:41:25.252Z,67.30
2023-05-10T15:43:51.743Z,67.30
2023-05-10T15:46:18.257Z,67.20
2023-05-10T15:48:44.762Z,67.20
2023-05-10T15:51:11.244Z,67.30
2023-05-10T15:53:37.707Z,67.20
2023-05-10T15:56:04.200Z,68.00
2023-05-10T15:58:30.679Z,67.10
2023-05-10T16:00:57.195Z,67.00
2023-05-10T16:03:23.796Z,67.00
2023-05-10T16:05:50.311Z,66.80
2023-05-10T16:08:16.802Z,66.90
2023-05-10T16:10:43.278Z,66.80
2023-05-10T16:13:09.751Z,66.80
2023-05-10T16:15:36.209Z,66.70
2023-05-10T16:18:02.946Z,66.60
2023-05-10T16:20:29.627Z,66.70
2023-05-10T16:22:56.128Z,66.50
2023-05-10T16:25:22.605Z,66.70
2023-05-10T16:27:49.090Z,66.70
2023-05-10T16:30:15.576Z,66.70
2023-05-10T16:32:42.103Z,66.50
2023-05-10T16:35:08.595Z,66.60
2023-05-10T16:37:35.076Z,66.60
2023-05-10T16:40:01.655Z,66.50
2023-05-10T16:42:28.238Z,66.60
2023-05-10T16:44:54.755Z,66.50
2023-05-10T16:47:21.277Z,66.60
2023-05-10T16:49:47.752Z,66.50
2023-05-10T16:52:14.235Z,66.60
2023-05-10T16:54:40.733Z,66.50
2023-05-10T16:57:07.210Z,66.60
2023-05-10T16:59:33.924Z,66.70
2023-05-10T17:02:00.583Z,66.60
2023-05-10T17:04:27.124Z,66.70
2023-05-10T17:06:53.630Z,66.60
2023-05-10T17:09:20.114Z,66.50
2023-05-10T17:11:46.589Z,66.60
2023-05-10T17:14:13.104Z,66.60
2023-05-10T17:16:39.583Z,66.70
2023-05-10T17:19:06.207Z,66.70
2023-05-10T17:21:32.681Z,66.70
2023-05-10T17:23:59.166Z,66.80
2023-05-10T17:26:25.630Z,66.80
2023-05-10T17:28:52.127Z,66.70
2023-05-10T17:31:18.658Z,66.80
2023-05-10T17:33:45.147Z,66.80
2023-05-10T17:36:11.616Z,66.90
2023-05-10T17:38:38.102Z,67.10
2023-05-10T17:41:04.582Z,67.20
2023-05-10T17:43:31.081Z,67.20
2023-05-10T17:45:57.594Z,67.40
2023-05-10T17:48:24.094Z,67.40
2023-05-10T17:50:50.602Z,67.40
2023-05-10T17:53:17.240Z,67.40
2023-05-10T17:55:43.735Z,67.50
2023-05-10T17:58:10.208Z,67.60
2023-05-10T18:00:36.755Z,67.60
2023-05-10T18:03:03.256Z,67.40
2023-05-10T18:05:29.944Z,67.40
2023-05-10T18:07:56.461Z,67.50
2023-05-10T18:10:22.958Z,67.60
2023-05-10T18:12:49.413Z,67.70
2023-05-10T18:15:16.060Z,67.70
2023-05-10T18:17:42.746Z,67.70
2023-05-10T18:20:09.265Z,67.70
2023-05-10T18:22:35.757Z,67.90
2023-05-10T18:25:02.250Z,67.80
2023-05-10T18:27:28.814Z,68.00
2023-05-10T18:29:55.321Z,67.70
2023-05-10T18:32:21.804Z,67.80
2023-05-10T18:34:48.304Z,67.80
2023-05-10T18:37:14.822Z,67.80
2023-05-10T18:39:41.309Z,67.80
2023-05-10T18:42:07.810Z,67.80
2023-05-10T18:44:34.366Z,67.90
2023-05-10T18:47:00.866Z,68.10
2023-05-10T18:49:27.353Z,68.00
2023-05-10T18:51:53.817Z,68.20
2023-05-10T18:54:20.303Z,68.00
2023-05-10T18:56:46.810Z,68.00
2023-05-10T18:59:13.313Z,67.90
2023-05-10T19:01:39.901Z,68.00
2023-05-10T19:04:06.439Z,68.10
2023-05-10T19:06:32.915Z,68.00
2023-05-10T19:08:59.443Z,68.10
2023-05-10T19:11:25.919Z,68.10
2023-05-10T19:13:52.403Z,68.00
2023-05-10T19:16:20.495Z,67.90
2023-05-10T19:18:50.080Z,68.00
2023-05-10T19:21:17.844Z,68.00
2023-05-10T19:23:44.343Z,67.90
2023-05-10T19:26:11.210Z,68.00
2023-05-10T19:28:37.866Z,68.10
2023-05-10T19:31:04.434Z,68.10
2023-05-10T19:33:31.030Z,68.10
2023-05-10T19:36:00.487Z,68.10
2023-05-10T19:38:27.073Z,68.10
2023-05-10T19:40:53.570Z,67.90
2023-05-10T19:43:21.469Z,68.10
2023-05-10T19:45:48.036Z,68.10
2023-05-10T19:48:14.558Z,68.10
2023-05-10T19:50:41.150Z,68.00
2023-05-10T19:53:07.625Z,68.00
2023-05-10T19:55:34.127Z,68.10
2023-05-10T19:58:00.676Z,68.00
2023-05-10T20:00:27.236Z,68.00
2023-05-10T20:02:53.767Z,68.00
2023-05-10T20:05:20.256Z,68.10
2023-05-10T20:07:46.752Z,68.00
2023-05-10T20:10:13.216Z,68.00
2023-05-10T20:12:39.700Z,68.00
2023-05-10T20:15:06.196Z,68.00
2023-05-10T20:17:32.708Z,68.10
2023-05-10T20:19:59.243Z,68.20
2023-05-10T20:22:25.720Z,68.30
2023-05-10T20:24:53.767Z,68.10
2023-05-10T20:27:21.676Z,68.30
2023-05-10T20:29:48.181Z,68.40
2023-05-10T20:32:14.647Z,68.40
2023-05-10T20:34:41.112Z,68.60
2023-05-10T20:37:07.636Z,68.70
2023-05-10T20:39:34.115Z,68.60
2023-05-10T20:42:00.598Z,68.50
2023-05-10T20:44:27.101Z,68.50
2023-05-10T20:46:53.575Z,68.50
2023-05-10T20:49:20.067Z,68.40
2023-05-10T20:51:46.549Z,68.30
2023-05-10T20:54:13.042Z,68.40
2023-05-10T20:56:39.784Z,68.30
2023-05-10T20:59:06.277Z,68.40
2023-05-10T21:01:32.777Z,68.30
2023-05-10T21:03:59.276Z,68.30
2023-05-10T21:06:25.773Z,68.30
2023-05-10T21:08:52.252Z,68.40
2023-05-10T21:11:18.742Z,68.40
2023-05-10T21:13:45.220Z,68.30
2023-05-10T21:16:11.794Z,68.30
2023-05-10T21:18:38.330Z,68.30
2023-05-10T21:21:04.880Z,68.20
2023-05-10T21:23:33.821Z,68.30
2023-05-10T21:26:00.983Z,68.30
2023-05-10T21:28:27.466Z,68.40
2023-05-10T21:30:53.946Z,68.40
2023-05-10T21:33:20.425Z,68.40
2023-05-10T21:35:46.938Z,68.40
2023-05-10T21:38:13.423Z,68.40
2023-05-10T21:40:39.898Z,68.40
2023-05-10T21:43:06.401Z,68.40
2023-05-10T21:45:32.939Z,68.50
2023-05-10T21:47:59.466Z,68.50
2023-05-10T21:50:26.018Z,68.50
2023-05-10T21:52:52.485Z,68.50
2023-05-10T21:55:18.976Z,68.30
2023-05-10T21:57:45.446Z,68.50
2023-05-10T22:00:12.568Z,68.50
2023-05-10T22:02:39.132Z,68.50
2023-05-10T22:05:05.682Z,68.50
2023-05-10T22:07:32.167Z,68.50
2023-05-10T22:09:58.655Z,68.60
2023-05-10T22:12:25.169Z,68.60
2023-05-10T22:15:06.335Z,68.70
2023-05-10T22:17:35.772Z,68.70
2023-05-10T22:20:02.266Z,68.80
2023-05-10T22:22:28.733Z,68.80
2023-05-10T22:25:00.622Z,68.80
2023-05-10T22:27:27.102Z,68.90
2023-05-10T22:29:53.588Z,68.90
2023-05-10T22:32:20.068Z,68.80
2023-05-10T22:34:46.870Z,68.80
2023-05-10T22:37:13.374Z,68.90
2023-05-10T22:39:39.881Z,68.90
2023-05-10T22:42:06.361Z,68.90
2023-05-10T22:44:32.856Z,68.90
2023-05-10T22:46:59.384Z,68.90
2023-05-10T22:49:25.924Z,69.00
2023-05-10T22:51:52.427Z,68.90
2023-05-10T22:54:18.936Z,68.80
2023-05-10T22:56:45.422Z,68.70
2023-05-10T22:59:11.914Z,68.70
2023-05-10T23:01:38.418Z,68.80
2023-05-10T23:04:04.964Z,68.80
2023-05-10T23:06:31.446Z,68.90
2023-05-10T23:08:57.898Z,68.80
2023-05-10T23:11:24.403Z,69.00
2023-05-10T23:13:50.880Z,68.90
2023-05-10T23:16:17.390Z,68.90
2023-05-10T23:18:43.946Z,68.90
2023-05-10T23:21:10.445Z,68.90
2023-05-10T23:23:36.944Z,69.00
2023-05-10T23:26:03.430Z,68.90
2023-05-10T23:28:29.900Z,68.90
2023-05-10T23:30:56.374Z,68.90
2023-05-10T23:33:22.857Z,68.80
2023-05-10T23:35:49.337Z,68.70
2023-05-10T23:38:15.826Z,68.80
2023-05-10T23:40:42.310Z,68.80
2023-05-10T23:43:08.803Z,68.70
2023-05-10T23:45:35.366Z,68.70
2023-05-10T23:48:01.898Z,68.60
2023-05-10T23:50:28.464Z,68.60
2023-05-10T23:52:54.955Z,68.60
2023-05-10T23:55:21.718Z,68.60
2023-05-10T23:57:48.216Z,68.60
